sensor_id;sensor_type;location;lat;lon;timestamp;temperature;humidity
51579;DHT22;47998;53.242;6.386;2023-12-20T00:01:23;4.90;99.90
51579;DHT22;47998;53.242;6.386;2023-12-20T00:03:48;4.90;99.90
51579;DHT22;47998;53.242;6.386;2023-12-20T00:06:14;4.90;99.90
51579;DHT22;47998;53.242;6.386;2023-12-20T00:08:40;4.70;99.90
51579;DHT22;47998;53.242;6.386;2023-12-20T00:11:06;4.70;99.90
51579;DHT22;47998;53.242;6.386;2023-12-20T00:13:31;4.70;99.90
51579;DHT22;47998;53.242;6.386;2023-12-20T00:15:57;4.80;99.90
51579;DHT22;47998;53.242;6.386;2023-12-20T00:18:23;4.80;99.90
51579;DHT22;47998;53.242;6.386;2023-12-20T00:20:49;4.80;99.90
51579;DHT22;47998;53.242;6.386;2023-12-20T00:23:15;4.80;99.90
51579;DHT22;47998;53.242;6.386;2023-12-20T00:25:40;4.80;99.90
51579;DHT22;47998;53.242;6.386;2023-12-20T00:28:06;4.80;99.90
51579;DHT22;47998;53.242;6.386;2023-12-20T00:30:32;4.90;99.90
51579;DHT22;47998;53.242;6.386;2023-12-20T00:32:58;4.90;99.90
51579;DHT22;47998;53.242;6.386;2023-12-20T00:35:24;4.90;99.90
51579;DHT22;47998;53.242;6.386;2023-12-20T00:37:50;5.10;99.90
51579;DHT22;47998;53.242;6.386;2023-12-20T00:40:15;5.20;99.90
51579;DHT22;47998;53.242;6.386;2023-12-20T00:42:41;5.20;99.90
51579;DHT22;47998;53.242;6.386;2023-12-20T00:45:08;5.20;99.90
51579;DHT22;47998;53.242;6.386;2023-12-20T00:47:33;5.20;99.90
51579;DHT22;47998;53.242;6.386;2023-12-20T00:49:59;5.10;99.90
51579;DHT22;47998;53.242;6.386;2023-12-20T00:52:25;5.20;99.90
51579;DHT22;47998;53.242;6.386;2023-12-20T00:54:51;5.20;99.90
51579;DHT22;47998;53.242;6.386;2023-12-20T00:57:17;5.10;99.90
51579;DHT22;47998;53.242;6.386;2023-12-20T00:59:43;5.10;99.90
51579;DHT22;47998;53.242;6.386;2023-12-20T01:02:09;5.10;99.90
51579;DHT22;47998;53.242;6.386;2023-12-20T01:04:35;5.10;99.90
51579;DHT22;47998;53.242;6.386;2023-12-20T01:07:01;5.00;99.90
51579;DHT22;47998;53.242;6.386;2023-12-20T01:09:27;5.00;99.90
51579;DHT22;47998;53.242;6.386;2023-12-20T01:11:53;4.90;99.90
51579;DHT22;47998;53.242;6.386;2023-12-20T01:14:19;5.00;99.90
51579;DHT22;47998;53.242;6.386;2023-12-20T01:16:45;5.00;99.90
51579;DHT22;47998;53.242;6.386;2023-12-20T01:19:11;5.00;99.90
51579;DHT22;47998;53.242;6.386;2023-12-20T01:21:37;5.00;99.90
51579;DHT22;47998;53.242;6.386;2023-12-20T01:24:03;5.10;99.90
51579;DHT22;47998;53.242;6.386;2023-12-20T01:26:29;5.20;99.90
51579;DHT22;47998;53.242;6.386;2023-12-20T01:28:54;5.20;99.90
51579;DHT22;47998;53.242;6.386;2023-12-20T01:31:20;5.30;99.90
51579;DHT22;47998;53.242;6.386;2023-12-20T01:33:46;5.40;99.90
51579;DHT22;47998;53.242;6.386;2023-12-20T01:36:12;5.40;99.90
51579;DHT22;47998;53.242;6.386;2023-12-20T01:38:38;5.40;99.90
51579;DHT22;47998;53.242;6.386;2023-12-20T01:41:04;5.40;99.90
51579;DHT22;47998;53.242;6.386;2023-12-20T01:43:30;5.40;99.90
51579;DHT22;47998;53.242;6.386;2023-12-20T01:45:59;5.30;99.90
51579;DHT22;47998;53.242;6.386;2023-12-20T01:48:26;5.20;99.90
51579;DHT22;47998;53.242;6.386;2023-12-20T01:50:54;5.20;99.90
51579;DHT22;47998;53.242;6.386;2023-12-20T01:53:21;5.20;99.90
51579;DHT22;47998;53.242;6.386;2023-12-20T01:55:50;5.40;99.90
51579;DHT22;47998;53.242;6.386;2023-12-20T01:58:19;5.20;99.90
51579;DHT22;47998;53.242;6.386;2023-12-20T02:00:45;5.20;99.90
51579;DHT22;47998;53.242;6.386;2023-12-20T02:03:11;5.30;99.90
51579;DHT22;47998;53.242;6.386;2023-12-20T02:05:38;5.10;99.90
51579;DHT22;47998;53.242;6.386;2023-12-20T02:08:04;5.10;99.90
51579;DHT22;47998;53.242;6.386;2023-12-20T02:10:31;5.20;99.90
51579;DHT22;47998;53.242;6.386;2023-12-20T02:12:57;5.20;99.90
51579;DHT22;47998;53.242;6.386;2023-12-20T02:15:23;5.20;99.90
51579;DHT22;47998;53.242;6.386;2023-12-20T02:17:49;5.30;99.90
51579;DHT22;47998;53.242;6.386;2023-12-20T02:20:15;5.30;99.90
51579;DHT22;47998;53.242;6.386;2023-12-20T02:22:41;5.40;99.90
51579;DHT22;47998;53.242;6.386;2023-12-20T02:25:07;5.30;99.90
51579;DHT22;47998;53.242;6.386;2023-12-20T02:27:33;5.50;99.90
51579;DHT22;47998;53.242;6.386;2023-12-20T02:30:00;5.50;99.90
51579;DHT22;47998;53.242;6.386;2023-12-20T02:32:25;5.50;99.90
51579;DHT22;47998;53.242;6.386;2023-12-20T02:34:52;5.70;99.90
51579;DHT22;47998;53.242;6.386;2023-12-20T02:37:18;5.60;99.90
51579;DHT22;47998;53.242;6.386;2023-12-20T02:39:46;5.20;99.90
51579;DHT22;47998;53.242;6.386;2023-12-20T02:42:12;5.50;99.90
51579;DHT22;47998;53.242;6.386;2023-12-20T02:44:38;5.20;99.90
51579;DHT22;47998;53.242;6.386;2023-12-20T02:47:04;5.30;99.90
51579;DHT22;47998;53.242;6.386;2023-12-20T02:49:30;5.70;99.90
51579;DHT22;47998;53.242;6.386;2023-12-20T02:51:55;5.60;99.90
51579;DHT22;47998;53.242;6.386;2023-12-20T02:54:21;5.60;99.90
51579;DHT22;47998;53.242;6.386;2023-12-20T02:56:48;5.80;99.90
51579;DHT22;47998;53.242;6.386;2023-12-20T02:59:13;5.90;99.90
51579;DHT22;47998;53.242;6.386;2023-12-20T03:01:44;5.80;99.90
51579;DHT22;47998;53.242;6.386;2023-12-20T03:04:10;5.60;99.90
51579;DHT22;47998;53.242;6.386;2023-12-20T03:06:36;5.80;99.90
51579;DHT22;47998;53.242;6.386;2023-12-20T03:09:02;5.70;99.90
51579;DHT22;47998;53.242;6.386;2023-12-20T03:11:28;5.80;99.90
51579;DHT22;47998;53.242;6.386;2023-12-20T03:13:54;5.80;99.90
51579;DHT22;47998;53.242;6.386;2023-12-20T03:16:20;5.90;99.90
51579;DHT22;47998;53.242;6.386;2023-12-20T03:18:46;6.10;99.90
51579;DHT22;47998;53.242;6.386;2023-12-20T03:21:12;6.00;99.90
51579;DHT22;47998;53.242;6.386;2023-12-20T03:23:38;6.10;99.90
51579;DHT22;47998;53.242;6.386;2023-12-20T03:26:07;6.00;99.90
51579;DHT22;47998;53.242;6.386;2023-12-20T03:28:33;6.00;99.90
51579;DHT22;47998;53.242;6.386;2023-12-20T03:30:59;6.10;99.90
51579;DHT22;47998;53.242;6.386;2023-12-20T03:33:25;5.90;99.90
51579;DHT22;47998;53.242;6.386;2023-12-20T03:35:50;5.80;99.90
51579;DHT22;47998;53.242;6.386;2023-12-20T03:38:16;5.50;99.90
51579;DHT22;47998;53.242;6.386;2023-12-20T03:40:42;5.60;99.90
51579;DHT22;47998;53.242;6.386;2023-12-20T03:43:08;5.50;99.90
51579;DHT22;47998;53.242;6.386;2023-12-20T03:45:34;5.50;99.90
51579;DHT22;47998;53.242;6.386;2023-12-20T03:48:00;5.70;99.90
51579;DHT22;47998;53.242;6.386;2023-12-20T03:50:26;5.70;99.90
51579;DHT22;47998;53.242;6.386;2023-12-20T03:52:52;5.70;99.90
51579;DHT22;47998;53.242;6.386;2023-12-20T03:55:18;6.00;99.90
51579;DHT22;47998;53.242;6.386;2023-12-20T03:57:44;5.70;99.90
51579;DHT22;47998;53.242;6.386;2023-12-20T04:00:10;5.80;99.90
51579;DHT22;47998;53.242;6.386;2023-12-20T04:02:40;5.90;99.90
51579;DHT22;47998;53.242;6.386;2023-12-20T04:05:07;5.90;99.90
51579;DHT22;47998;53.242;6.386;2023-12-20T04:07:33;6.00;99.90
51579;DHT22;47998;53.242;6.386;2023-12-20T04:09:59;6.00;99.90
51579;DHT22;47998;53.242;6.386;2023-12-20T04:12:30;6.00;99.90
51579;DHT22;47998;53.242;6.386;2023-12-20T04:14:56;6.20;99.90
51579;DHT22;47998;53.242;6.386;2023-12-20T04:17:22;6.30;99.90
51579;DHT22;47998;53.242;6.386;2023-12-20T04:19:51;6.40;99.90
51579;DHT22;47998;53.242;6.386;2023-12-20T04:22:18;6.30;99.90
51579;DHT22;47998;53.242;6.386;2023-12-20T04:24:44;6.30;99.90
51579;DHT22;47998;53.242;6.386;2023-12-20T04:27:10;6.40;99.90
51579;DHT22;47998;53.242;6.386;2023-12-20T04:29:36;6.40;99.90
51579;DHT22;47998;53.242;6.386;2023-12-20T04:32:02;6.40;99.90
51579;DHT22;47998;53.242;6.386;2023-12-20T04:34:28;6.30;99.90
51579;DHT22;47998;53.242;6.386;2023-12-20T04:36:54;6.20;99.90
51579;DHT22;47998;53.242;6.386;2023-12-20T04:39:20;6.30;99.90
51579;DHT22;47998;53.242;6.386;2023-12-20T04:41:45;6.40;99.90
51579;DHT22;47998;53.242;6.386;2023-12-20T04:44:13;6.40;99.90
51579;DHT22;47998;53.242;6.386;2023-12-20T04:46:39;6.40;99.90
51579;DHT22;47998;53.242;6.386;2023-12-20T04:49:05;6.40;99.90
51579;DHT22;47998;53.242;6.386;2023-12-20T04:51:33;6.50;99.90
51579;DHT22;47998;53.242;6.386;2023-12-20T04:53:59;6.40;99.90
51579;DHT22;47998;53.242;6.386;2023-12-20T04:56:25;6.50;99.90
51579;DHT22;47998;53.242;6.386;2023-12-20T04:58:51;6.50;99.90
51579;DHT22;47998;53.242;6.386;2023-12-20T05:01:17;6.60;99.90
51579;DHT22;47998;53.242;6.386;2023-12-20T05:03:42;6.60;99.90
51579;DHT22;47998;53.242;6.386;2023-12-20T05:06:09;6.60;99.90
51579;DHT22;47998;53.242;6.386;2023-12-20T05:08:35;6.60;99.90
51579;DHT22;47998;53.242;6.386;2023-12-20T05:11:01;6.60;99.90
51579;DHT22;47998;53.242;6.386;2023-12-20T05:13:27;6.60;99.90
51579;DHT22;47998;53.242;6.386;2023-12-20T05:15:53;6.70;99.90
51579;DHT22;47998;53.242;6.386;2023-12-20T05:18:20;6.70;99.90
51579;DHT22;47998;53.242;6.386;2023-12-20T05:20:45;6.70;99.90
51579;DHT22;47998;53.242;6.386;2023-12-20T05:23:11;6.60;99.90
51579;DHT22;47998;53.242;6.386;2023-12-20T05:25:38;6.70;99.90
51579;DHT22;47998;53.242;6.386;2023-12-20T05:28:04;6.70;99.90
51579;DHT22;47998;53.242;6.386;2023-12-20T05:30:30;6.70;99.90
51579;DHT22;47998;53.242;6.386;2023-12-20T05:32:56;6.70;99.90
51579;DHT22;47998;53.242;6.386;2023-12-20T05:35:22;6.70;99.90
51579;DHT22;47998;53.242;6.386;2023-12-20T05:37:49;6.70;99.90
51579;DHT22;47998;53.242;6.386;2023-12-20T05:40:15;6.70;99.90
51579;DHT22;47998;53.242;6.386;2023-12-20T05:42:41;6.70;99.90
51579;DHT22;47998;53.242;6.386;2023-12-20T05:45:07;6.60;99.90
51579;DHT22;47998;53.242;6.386;2023-12-20T05:47:33;6.70;99.90
51579;DHT22;47998;53.242;6.386;2023-12-20T05:49:59;6.80;99.90
51579;DHT22;47998;53.242;6.386;2023-12-20T05:52:24;6.80;99.90
51579;DHT22;47998;53.242;6.386;2023-12-20T05:54:50;6.80;99.90
51579;DHT22;47998;53.242;6.386;2023-12-20T05:57:16;6.80;99.90
51579;DHT22;47998;53.242;6.386;2023-12-20T05:59:42;6.80;99.90
51579;DHT22;47998;53.242;6.386;2023-12-20T06:02:07;6.80;99.90
51579;DHT22;47998;53.242;6.386;2023-12-20T06:04:33;6.80;99.90
51579;DHT22;47998;53.242;6.386;2023-12-20T06:06:59;6.90;99.90
51579;DHT22;47998;53.242;6.386;2023-12-20T06:09:26;7.00;99.90
51579;DHT22;47998;53.242;6.386;2023-12-20T06:11:52;6.90;99.90
51579;DHT22;47998;53.242;6.386;2023-12-20T06:14:18;6.80;99.90
51579;DHT22;47998;53.242;6.386;2023-12-20T06:16:45;6.90;99.90
51579;DHT22;47998;53.242;6.386;2023-12-20T06:19:11;6.80;99.90
51579;DHT22;47998;53.242;6.386;2023-12-20T06:21:36;6.80;99.90
51579;DHT22;47998;53.242;6.386;2023-12-20T06:24:02;6.70;99.90
51579;DHT22;47998;53.242;6.386;2023-12-20T06:26:28;6.70;99.90
51579;DHT22;47998;53.242;6.386;2023-12-20T06:28:54;6.80;99.90
51579;DHT22;47998;53.242;6.386;2023-12-20T06:31:21;6.90;99.90
51579;DHT22;47998;53.242;6.386;2023-12-20T06:33:46;6.90;99.90
51579;DHT22;47998;53.242;6.386;2023-12-20T06:36:13;7.00;99.90
51579;DHT22;47998;53.242;6.386;2023-12-20T06:38:39;7.00;99.90
51579;DHT22;47998;53.242;6.386;2023-12-20T06:41:05;6.90;99.90
51579;DHT22;47998;53.242;6.386;2023-12-20T06:43:31;7.00;99.90
51579;DHT22;47998;53.242;6.386;2023-12-20T06:45:58;7.00;99.90
51579;DHT22;47998;53.242;6.386;2023-12-20T06:48:24;7.00;99.90
51579;DHT22;47998;53.242;6.386;2023-12-20T06:50:49;7.10;99.90
51579;DHT22;47998;53.242;6.386;2023-12-20T06:53:15;7.00;99.90
51579;DHT22;47998;53.242;6.386;2023-12-20T06:55:42;7.10;99.90
51579;DHT22;47998;53.242;6.386;2023-12-20T06:58:08;7.10;99.90
51579;DHT22;47998;53.242;6.386;2023-12-20T07:00:34;7.10;99.90
51579;DHT22;47998;53.242;6.386;2023-12-20T07:03:00;7.10;99.90
51579;DHT22;47998;53.242;6.386;2023-12-20T07:05:26;7.20;99.90
51579;DHT22;47998;53.242;6.386;2023-12-20T07:07:52;7.20;99.90
51579;DHT22;47998;53.242;6.386;2023-12-20T07:10:18;7.10;99.90
51579;DHT22;47998;53.242;6.386;2023-12-20T07:12:44;7.10;99.90
51579;DHT22;47998;53.242;6.386;2023-12-20T07:15:10;7.20;99.90
51579;DHT22;47998;53.242;6.386;2023-12-20T07:17:36;7.20;99.90
51579;DHT22;47998;53.242;6.386;2023-12-20T07:20:02;7.20;99.90
51579;DHT22;47998;53.242;6.386;2023-12-20T07:22:33;7.20;99.90
51579;DHT22;47998;53.242;6.386;2023-12-20T07:24:59;7.20;99.90
51579;DHT22;47998;53.242;6.386;2023-12-20T07:27:26;7.20;99.90
51579;DHT22;47998;53.242;6.386;2023-12-20T07:29:52;7.10;99.90
51579;DHT22;47998;53.242;6.386;2023-12-20T07:32:18;7.10;99.90
51579;DHT22;47998;53.242;6.386;2023-12-20T07:34:43;7.20;99.90
51579;DHT22;47998;53.242;6.386;2023-12-20T07:37:09;7.10;99.90
51579;DHT22;47998;53.242;6.386;2023-12-20T07:39:42;7.10;99.90
51579;DHT22;47998;53.242;6.386;2023-12-20T07:42:08;7.10;99.90
51579;DHT22;47998;53.242;6.386;2023-12-20T07:44:34;7.10;99.90
51579;DHT22;47998;53.242;6.386;2023-12-20T07:47:02;7.10;99.90
51579;DHT22;47998;53.242;6.386;2023-12-20T07:49:28;7.10;99.90
51579;DHT22;47998;53.242;6.386;2023-12-20T07:51:53;7.20;99.90
51579;DHT22;47998;53.242;6.386;2023-12-20T07:54:19;7.20;99.90
51579;DHT22;47998;53.242;6.386;2023-12-20T07:56:46;7.20;99.90
51579;DHT22;47998;53.242;6.386;2023-12-20T07:59:12;7.20;99.90
51579;DHT22;47998;53.242;6.386;2023-12-20T08:01:38;7.30;99.90
51579;DHT22;47998;53.242;6.386;2023-12-20T08:04:04;7.30;99.90
51579;DHT22;47998;53.242;6.386;2023-12-20T08:06:29;7.20;99.90
51579;DHT22;47998;53.242;6.386;2023-12-20T08:08:55;7.10;99.90
51579;DHT22;47998;53.242;6.386;2023-12-20T08:11:21;7.20;99.90
51579;DHT22;47998;53.242;6.386;2023-12-20T08:13:47;7.20;99.90
51579;DHT22;47998;53.242;6.386;2023-12-20T08:16:12;7.10;99.90
51579;DHT22;47998;53.242;6.386;2023-12-20T08:18:39;7.00;99.90
51579;DHT22;47998;53.242;6.386;2023-12-20T08:21:05;7.00;99.90
51579;DHT22;47998;53.242;6.386;2023-12-20T08:23:33;6.90;99.90
51579;DHT22;47998;53.242;6.386;2023-12-20T08:26:04;6.90;99.90
51579;DHT22;47998;53.242;6.386;2023-12-20T08:28:30;7.00;99.90
51579;DHT22;47998;53.242;6.386;2023-12-20T08:30:56;7.10;99.90
51579;DHT22;47998;53.242;6.386;2023-12-20T08:33:22;7.20;99.90
51579;DHT22;47998;53.242;6.386;2023-12-20T08:35:48;7.20;99.90
51579;DHT22;47998;53.242;6.386;2023-12-20T08:38:14;7.20;99.90
51579;DHT22;47998;53.242;6.386;2023-12-20T08:40:40;7.20;99.90
51579;DHT22;47998;53.242;6.386;2023-12-20T08:43:05;6.60;99.90
51579;DHT22;47998;53.242;6.386;2023-12-20T08:45:31;6.20;99.90
51579;DHT22;47998;53.242;6.386;2023-12-20T08:47:57;5.30;99.90
51579;DHT22;47998;53.242;6.386;2023-12-20T08:50:23;5.40;99.90
51579;DHT22;47998;53.242;6.386;2023-12-20T08:52:50;4.30;99.90
51579;DHT22;47998;53.242;6.386;2023-12-20T08:55:19;4.00;99.90
51579;DHT22;47998;53.242;6.386;2023-12-20T08:57:45;4.30;99.90
51579;DHT22;47998;53.242;6.386;2023-12-20T09:00:12;4.10;99.90
51579;DHT22;47998;53.242;6.386;2023-12-20T09:02:40;5.40;99.90
51579;DHT22;47998;53.242;6.386;2023-12-20T09:05:06;5.50;99.90
51579;DHT22;47998;53.242;6.386;2023-12-20T09:07:32;4.90;99.90
51579;DHT22;47998;53.242;6.386;2023-12-20T09:09:58;5.60;99.90
51579;DHT22;47998;53.242;6.386;2023-12-20T09:12:25;5.40;99.90
51579;DHT22;47998;53.242;6.386;2023-12-20T09:14:51;5.30;99.90
51579;DHT22;47998;53.242;6.386;2023-12-20T09:17:18;4.60;99.90
51579;DHT22;47998;53.242;6.386;2023-12-20T09:19:44;5.10;99.90
51579;DHT22;47998;53.242;6.386;2023-12-20T09:22:10;4.20;99.90
51579;DHT22;47998;53.242;6.386;2023-12-20T09:24:36;5.00;99.90
51579;DHT22;47998;53.242;6.386;2023-12-20T09:27:02;4.80;99.90
51579;DHT22;47998;53.242;6.386;2023-12-20T09:29:29;4.20;99.90
51579;DHT22;47998;53.242;6.386;2023-12-20T09:31:55;4.20;99.90
51579;DHT22;47998;53.242;6.386;2023-12-20T09:34:21;4.80;99.90
51579;DHT22;47998;53.242;6.386;2023-12-20T09:36:47;4.70;99.90
51579;DHT22;47998;53.242;6.386;2023-12-20T09:39:14;4.40;99.90
51579;DHT22;47998;53.242;6.386;2023-12-20T09:41:43;4.50;99.90
51579;DHT22;47998;53.242;6.386;2023-12-20T09:44:15;4.70;99.90
51579;DHT22;47998;53.242;6.386;2023-12-20T09:46:44;4.80;99.90
51579;DHT22;47998;53.242;6.386;2023-12-20T09:49:12;5.10;99.90
51579;DHT22;47998;53.242;6.386;2023-12-20T09:51:41;4.90;99.90
51579;DHT22;47998;53.242;6.386;2023-12-20T09:54:07;5.00;99.90
51579;DHT22;47998;53.242;6.386;2023-12-20T09:56:34;5.10;99.90
51579;DHT22;47998;53.242;6.386;2023-12-20T09:59:00;5.00;99.90
51579;DHT22;47998;53.242;6.386;2023-12-20T10:01:27;5.20;99.90
51579;DHT22;47998;53.242;6.386;2023-12-20T10:03:56;5.40;99.90
51579;DHT22;47998;53.242;6.386;2023-12-20T10:06:24;5.40;99.90
51579;DHT22;47998;53.242;6.386;2023-12-20T10:08:49;5.50;99.90
51579;DHT22;47998;53.242;6.386;2023-12-20T10:11:15;5.50;99.90
51579;DHT22;47998;53.242;6.386;2023-12-20T10:13:42;5.50;99.90
51579;DHT22;47998;53.242;6.386;2023-12-20T10:16:09;5.60;99.90
51579;DHT22;47998;53.242;6.386;2023-12-20T10:18:35;5.70;99.90
51579;DHT22;47998;53.242;6.386;2023-12-20T10:21:01;5.90;99.90
51579;DHT22;47998;53.242;6.386;2023-12-20T10:23:27;6.00;99.90
51579;DHT22;47998;53.242;6.386;2023-12-20T10:25:57;6.00;99.90
51579;DHT22;47998;53.242;6.386;2023-12-20T10:28:23;6.00;99.90
51579;DHT22;47998;53.242;6.386;2023-12-20T10:30:54;6.00;99.90
51579;DHT22;47998;53.242;6.386;2023-12-20T10:33:31;5.90;99.90
51579;DHT22;47998;53.242;6.386;2023-12-20T10:36:00;6.00;99.90
51579;DHT22;47998;53.242;6.386;2023-12-20T10:38:26;6.10;99.90
51579;DHT22;47998;53.242;6.386;2023-12-20T10:40:57;6.00;99.90
51579;DHT22;47998;53.242;6.386;2023-12-20T10:43:24;6.00;99.90
51579;DHT22;47998;53.242;6.386;2023-12-20T10:45:52;6.00;99.90
51579;DHT22;47998;53.242;6.386;2023-12-20T10:48:18;6.20;99.90
51579;DHT22;47998;53.242;6.386;2023-12-20T10:50:44;6.20;99.90
51579;DHT22;47998;53.242;6.386;2023-12-20T10:53:10;6.20;99.90
51579;DHT22;47998;53.242;6.386;2023-12-20T10:55:38;6.10;99.90
51579;DHT22;47998;53.242;6.386;2023-12-20T10:58:08;6.00;99.90
51579;DHT22;47998;53.242;6.386;2023-12-20T11:00:39;6.00;99.90
51579;DHT22;47998;53.242;6.386;2023-12-20T11:03:10;6.10;99.90
51579;DHT22;47998;53.242;6.386;2023-12-20T11:06:01;6.20;99.90
51579;DHT22;47998;53.242;6.386;2023-12-20T11:08:37;6.30;99.90
51579;DHT22;47998;53.242;6.386;2023-12-20T11:14:11;6.40;99.90
51579;DHT22;47998;53.242;6.386;2023-12-20T11:16:38;6.40;99.90
51579;DHT22;47998;53.242;6.386;2023-12-20T11:19:07;6.40;99.90
51579;DHT22;47998;53.242;6.386;2023-12-20T11:21:33;6.40;99.90
51579;DHT22;47998;53.242;6.386;2023-12-20T11:23:59;6.30;99.90
51579;DHT22;47998;53.242;6.386;2023-12-20T11:26:29;6.40;99.90
51579;DHT22;47998;53.242;6.386;2023-12-20T11:29:30;6.50;99.90
51579;DHT22;47998;53.242;6.386;2023-12-20T11:31:59;6.60;99.90
51579;DHT22;47998;53.242;6.386;2023-12-20T11:34:28;6.70;99.90
51579;DHT22;47998;53.242;6.386;2023-12-20T11:36:58;6.70;99.90
51579;DHT22;47998;53.242;6.386;2023-12-20T11:39:26;6.80;99.90
51579;DHT22;47998;53.242;6.386;2023-12-20T11:41:54;6.70;99.90
51579;DHT22;47998;53.242;6.386;2023-12-20T11:44:20;6.70;99.90
51579;DHT22;47998;53.242;6.386;2023-12-20T11:46:46;6.70;99.90
51579;DHT22;47998;53.242;6.386;2023-12-20T11:49:12;6.70;99.90
51579;DHT22;47998;53.242;6.386;2023-12-20T11:51:41;6.60;99.90
51579;DHT22;47998;53.242;6.386;2023-12-20T11:54:07;6.60;99.90
51579;DHT22;47998;53.242;6.386;2023-12-20T11:56:36;6.60;99.90
51579;DHT22;47998;53.242;6.386;2023-12-20T11:59:02;6.60;99.90
51579;DHT22;47998;53.242;6.386;2023-12-20T12:01:28;6.60;99.90
51579;DHT22;47998;53.242;6.386;2023-12-20T12:04:04;6.60;99.90
51579;DHT22;47998;53.242;6.386;2023-12-20T12:06:30;6.70;99.90
51579;DHT22;47998;53.242;6.386;2023-12-20T12:08:55;6.70;99.90
51579;DHT22;47998;53.242;6.386;2023-12-20T12:11:22;6.70;99.90
51579;DHT22;47998;53.242;6.386;2023-12-20T12:13:48;6.70;99.90
51579;DHT22;47998;53.242;6.386;2023-12-20T12:16:17;6.60;99.90
51579;DHT22;47998;53.242;6.386;2023-12-20T12:18:44;6.60;99.90
51579;DHT22;47998;53.242;6.386;2023-12-20T12:21:18;6.60;99.90
51579;DHT22;47998;53.242;6.386;2023-12-20T12:23:43;6.60;99.90
51579;DHT22;47998;53.242;6.386;2023-12-20T12:26:09;6.60;99.90
51579;DHT22;47998;53.242;6.386;2023-12-20T12:28:35;6.70;99.90
51579;DHT22;47998;53.242;6.386;2023-12-20T12:31:01;6.60;99.90
51579;DHT22;47998;53.242;6.386;2023-12-20T12:33:27;6.60;99.90
51579;DHT22;47998;53.242;6.386;2023-12-20T12:35:53;6.60;99.90
51579;DHT22;47998;53.242;6.386;2023-12-20T12:38:22;6.50;99.90
51579;DHT22;47998;53.242;6.386;2023-12-20T12:40:50;6.50;99.90
51579;DHT22;47998;53.242;6.386;2023-12-20T12:43:16;6.50;99.90
51579;DHT22;47998;53.242;6.386;2023-12-20T12:45:41;6.60;99.90
51579;DHT22;47998;53.242;6.386;2023-12-20T12:48:07;6.60;99.90
51579;DHT22;47998;53.242;6.386;2023-12-20T12:50:33;6.60;99.90
51579;DHT22;47998;53.242;6.386;2023-12-20T12:52:59;6.70;99.90
51579;DHT22;47998;53.242;6.386;2023-12-20T12:55:24;6.70;99.90
51579;DHT22;47998;53.242;6.386;2023-12-20T12:57:50;6.80;99.90
51579;DHT22;47998;53.242;6.386;2023-12-20T13:00:16;6.80;99.90
51579;DHT22;47998;53.242;6.386;2023-12-20T13:02:42;6.80;99.90
51579;DHT22;47998;53.242;6.386;2023-12-20T13:05:08;6.80;99.90
51579;DHT22;47998;53.242;6.386;2023-12-20T13:07:34;6.80;99.90
51579;DHT22;47998;53.242;6.386;2023-12-20T13:10:02;6.70;99.90
51579;DHT22;47998;53.242;6.386;2023-12-20T13:12:27;6.70;99.90
51579;DHT22;47998;53.242;6.386;2023-12-20T13:14:53;6.60;99.90
51579;DHT22;47998;53.242;6.386;2023-12-20T13:17:19;6.50;99.90
51579;DHT22;47998;53.242;6.386;2023-12-20T13:19:45;6.50;99.90
51579;DHT22;47998;53.242;6.386;2023-12-20T13:22:10;6.50;99.90
51579;DHT22;47998;53.242;6.386;2023-12-20T13:24:36;6.40;99.90
51579;DHT22;47998;53.242;6.386;2023-12-20T13:27:02;6.40;99.90
51579;DHT22;47998;53.242;6.386;2023-12-20T13:29:28;6.30;99.90
51579;DHT22;47998;53.242;6.386;2023-12-20T13:31:54;6.30;99.90
51579;DHT22;47998;53.242;6.386;2023-12-20T13:34:20;6.30;99.90
51579;DHT22;47998;53.242;6.386;2023-12-20T13:36:47;6.30;99.90
51579;DHT22;47998;53.242;6.386;2023-12-20T13:39:13;6.30;99.90
51579;DHT22;47998;53.242;6.386;2023-12-20T13:41:39;6.30;99.90
51579;DHT22;47998;53.242;6.386;2023-12-20T13:44:05;6.20;99.90
51579;DHT22;47998;53.242;6.386;2023-12-20T13:46:31;6.20;99.90
51579;DHT22;47998;53.242;6.386;2023-12-20T13:48:57;6.10;99.90
51579;DHT22;47998;53.242;6.386;2023-12-20T13:51:23;6.10;99.90
51579;DHT22;47998;53.242;6.386;2023-12-20T13:53:49;6.10;99.90
51579;DHT22;47998;53.242;6.386;2023-12-20T13:56:15;6.10;99.90
51579;DHT22;47998;53.242;6.386;2023-12-20T13:58:41;6.00;99.90
51579;DHT22;47998;53.242;6.386;2023-12-20T14:01:08;6.00;99.90
51579;DHT22;47998;53.242;6.386;2023-12-20T14:03:34;5.90;99.90
51579;DHT22;47998;53.242;6.386;2023-12-20T14:06:00;5.80;99.90
51579;DHT22;47998;53.242;6.386;2023-12-20T14:08:27;5.80;99.90
51579;DHT22;47998;53.242;6.386;2023-12-20T14:10:53;5.70;99.90
51579;DHT22;47998;53.242;6.386;2023-12-20T14:13:19;5.80;99.90
51579;DHT22;47998;53.242;6.386;2023-12-20T14:15:46;5.90;99.90
51579;DHT22;47998;53.242;6.386;2023-12-20T14:18:14;5.80;99.90
51579;DHT22;47998;53.242;6.386;2023-12-20T14:20:41;5.80;99.90
51579;DHT22;47998;53.242;6.386;2023-12-20T14:23:08;5.80;99.90
51579;DHT22;47998;53.242;6.386;2023-12-20T14:25:37;5.80;99.90
51579;DHT22;47998;53.242;6.386;2023-12-20T14:28:06;5.80;99.90
51579;DHT22;47998;53.242;6.386;2023-12-20T14:30:32;5.80;99.90
51579;DHT22;47998;53.242;6.386;2023-12-20T14:32:58;5.70;99.90
51579;DHT22;47998;53.242;6.386;2023-12-20T14:35:24;5.70;99.90
51579;DHT22;47998;53.242;6.386;2023-12-20T14:37:49;5.60;99.90
51579;DHT22;47998;53.242;6.386;2023-12-20T14:40:16;5.60;99.90
51579;DHT22;47998;53.242;6.386;2023-12-20T14:42:42;5.70;99.90
51579;DHT22;47998;53.242;6.386;2023-12-20T14:45:09;5.70;99.90
51579;DHT22;47998;53.242;6.386;2023-12-20T14:47:35;5.50;99.90
51579;DHT22;47998;53.242;6.386;2023-12-20T14:50:03;5.70;99.90
51579;DHT22;47998;53.242;6.386;2023-12-20T14:52:30;5.50;99.90
51579;DHT22;47998;53.242;6.386;2023-12-20T14:54:56;5.50;99.90
51579;DHT22;47998;53.242;6.386;2023-12-20T14:57:22;5.70;99.90
51579;DHT22;47998;53.242;6.386;2023-12-20T14:59:48;5.60;99.90
51579;DHT22;47998;53.242;6.386;2023-12-20T15:02:13;5.60;99.90
51579;DHT22;47998;53.242;6.386;2023-12-20T15:04:41;5.60;99.90
51579;DHT22;47998;53.242;6.386;2023-12-20T15:07:06;5.80;99.90
51579;DHT22;47998;53.242;6.386;2023-12-20T15:09:32;5.80;99.90
51579;DHT22;47998;53.242;6.386;2023-12-20T15:11:58;5.60;99.90
51579;DHT22;47998;53.242;6.386;2023-12-20T15:14:24;5.70;99.90
51579;DHT22;47998;53.242;6.386;2023-12-20T15:16:50;5.80;99.90
51579;DHT22;47998;53.242;6.386;2023-12-20T15:19:15;5.60;99.90
51579;DHT22;47998;53.242;6.386;2023-12-20T15:21:42;5.60;99.90
51579;DHT22;47998;53.242;6.386;2023-12-20T15:24:09;5.50;99.90
51579;DHT22;47998;53.242;6.386;2023-12-20T15:26:41;5.50;99.90
51579;DHT22;47998;53.242;6.386;2023-12-20T15:29:08;5.70;99.90
51579;DHT22;47998;53.242;6.386;2023-12-20T15:31:41;5.50;99.90
51579;DHT22;47998;53.242;6.386;2023-12-20T15:34:07;5.70;99.90
51579;DHT22;47998;53.242;6.386;2023-12-20T15:36:33;5.80;99.90
51579;DHT22;47998;53.242;6.386;2023-12-20T15:38:58;5.60;99.90
51579;DHT22;47998;53.242;6.386;2023-12-20T15:41:24;5.80;99.90
51579;DHT22;47998;53.242;6.386;2023-12-20T15:43:50;5.70;99.90